sensor_id;sensor_type;location;lat;lon;timestamp;pressure;altitude;pressure_sealevel;temperature;humidity
49451;BME280;35336;48.400;10.886;2022-07-31T00:00:06;96508.81;;;17.48;74.29
49451;BME280;35336;48.400;10.886;2022-07-31T00:00:23;96532.13;;;17.66;74.58
49451;BME280;35336;48.400;10.886;2022-07-31T00:00:38;96463.28;;;17.22;74.12
49451;BME280;35336;48.400;10.886;2022-07-31T00:00:54;96507.53;;;17.50;74.36
49451;BME280;35336;48.400;10.886;2022-07-31T00:01:11;96534.22;;;17.63;74.22
49451;BME280;35336;48.400;10.886;2022-07-31T00:01:26;96469.00;;;17.26;74.19
49451;BME280;35336;48.400;10.886;2022-07-31T00:01:42;96519.50;;;17.54;74.44
49451;BME280;35336;48.400;10.886;2022-07-31T00:01:57;96513.84;;;17.56;74.21
49451;BME280;35336;48.400;10.886;2022-07-31T00:02:13;96523.00;;;17.55;74.39
49451;BME280;35336;48.400;10.886;2022-07-31T00:02:28;96529.31;;;17.60;74.55
49451;BME280;35336;48.400;10.886;2022-07-31T00:02:43;96520.91;;;17.57;74.39
49451;BME280;35336;48.400;10.886;2022-07-31T00:02:59;96508.72;;;17.42;74.44
49451;BME280;35336;48.400;10.886;2022-07-31T00:03:14;96524.53;;;17.51;74.23
49451;BME280;35336;48.400;10.886;2022-07-31T00:03:30;96533.19;;;17.53;74.11
49451;BME280;35336;48.400;10.886;2022-07-31T00:03:45;96522.91;;;17.50;74.36
49451;BME280;35336;48.400;10.886;2022-07-31T00:04:01;96518.47;;;17.43;74.37
49451;BME280;35336;48.400;10.886;2022-07-31T00:04:17;96528.84;;;17.52;74.10
49451;BME280;35336;48.400;10.886;2022-07-31T00:04:32;96487.88;;;17.26;74.16
49451;BME280;35336;48.400;10.886;2022-07-31T00:04:47;96534.25;;;17.52;74.38
49451;BME280;35336;48.400;10.886;2022-07-31T00:05:03;96514.69;;;17.44;74.30
49451;BME280;35336;48.400;10.886;2022-07-31T00:05:19;96529.09;;;17.50;74.47
49451;BME280;35336;48.400;10.886;2022-07-31T00:05:34;96504.84;;;17.38;74.39
49451;BME280;35336;48.400;10.886;2022-07-31T00:05:50;96479.09;;;17.19;74.49
49451;BME280;35336;48.400;10.886;2022-07-31T00:06:05;96506.13;;;17.36;74.35
49451;BME280;35336;48.400;10.886;2022-07-31T00:06:21;96523.94;;;17.49;74.50
49451;BME280;35336;48.400;10.886;2022-07-31T00:06:36;96515.75;;;17.43;74.36
49451;BME280;35336;48.400;10.886;2022-07-31T00:06:51;96479.69;;;17.21;74.31
49451;BME280;35336;48.400;10.886;2022-07-31T00:07:07;96496.19;;;17.36;74.17
49451;BME280;35336;48.400;10.886;2022-07-31T00:07:22;96514.69;;;17.44;74.21
49451;BME280;35336;48.400;10.886;2022-07-31T00:07:38;96525.59;;;17.50;74.17
49451;BME280;35336;48.400;10.886;2022-07-31T00:07:53;96533.78;;;17.55;74.46
49451;BME280;35336;48.400;10.886;2022-07-31T00:08:09;96528.63;;;17.53;74.66
49451;BME280;35336;48.400;10.886;2022-07-31T00:08:24;96508.59;;;17.37;74.36
49451;BME280;35336;48.400;10.886;2022-07-31T00:08:40;96527.00;;;17.52;74.22
49451;BME280;35336;48.400;10.886;2022-07-31T00:08:55;96515.41;;;17.40;74.57
49451;BME280;35336;48.400;10.886;2022-07-31T00:09:11;96527.00;;;17.52;74.38
49451;BME280;35336;48.400;10.886;2022-07-31T00:09:26;96500.41;;;17.32;74.37
49451;BME280;35336;48.400;10.886;2022-07-31T00:09:43;96516.31;;;17.45;74.41
49451;BME280;35336;48.400;10.886;2022-07-31T00:09:59;96525.94;;;17.53;74.54
49451;BME280;35336;48.400;10.886;2022-07-31T00:10:14;96520.66;;;17.46;74.15
49451;BME280;35336;48.400;10.886;2022-07-31T00:10:30;96521.50;;;17.47;74.34
49451;BME280;35336;48.400;10.886;2022-07-31T00:10:45;96523.47;;;17.52;74.45
49451;BME280;35336;48.400;10.886;2022-07-31T00:11:01;96511.63;;;17.41;74.54
49451;BME280;35336;48.400;10.886;2022-07-31T00:11:16;96531.78;;;17.50;74.62
49451;BME280;35336;48.400;10.886;2022-07-31T00:11:32;96529.94;;;17.51;74.47
49451;BME280;35336;48.400;10.886;2022-07-31T00:11:47;96527.69;;;17.48;74.69
49451;BME280;35336;48.400;10.886;2022-07-31T00:12:03;96533.69;;;17.50;74.74
49451;BME280;35336;48.400;10.886;2022-07-31T00:12:19;96535.53;;;17.49;74.91
49451;BME280;35336;48.400;10.886;2022-07-31T00:12:35;96501.00;;;17.22;74.80
49451;BME280;35336;48.400;10.886;2022-07-31T00:12:51;96518.31;;;17.38;74.93
49451;BME280;35336;48.400;10.886;2022-07-31T00:13:06;96538.22;;;17.49;74.82
49451;BME280;35336;48.400;10.886;2022-07-31T00:13:22;96481.53;;;17.20;74.82
49451;BME280;35336;48.400;10.886;2022-07-31T00:13:37;96503.59;;;17.29;74.93
49451;BME280;35336;48.400;10.886;2022-07-31T00:13:53;96506.28;;;17.29;75.02
49451;BME280;35336;48.400;10.886;2022-07-31T00:14:09;96530.84;;;17.44;75.14
49451;BME280;35336;48.400;10.886;2022-07-31T00:14:25;96515.28;;;17.35;74.95
49451;BME280;35336;48.400;10.886;2022-07-31T00:14:40;96522.31;;;17.36;75.17
49451;BME280;35336;48.400;10.886;2022-07-31T00:14:56;96511.66;;;17.29;74.73
49451;BME280;35336;48.400;10.886;2022-07-31T00:15:11;96529.69;;;17.40;74.73
49451;BME280;35336;48.400;10.886;2022-07-31T00:15:27;96496.41;;;17.23;75.07
49451;BME280;35336;48.400;10.886;2022-07-31T00:15:42;96526.41;;;17.38;75.18
49451;BME280;35336;48.400;10.886;2022-07-31T00:15:58;96475.59;;;17.06;75.10
49451;BME280;35336;48.400;10.886;2022-07-31T00:16:13;96524.91;;;17.42;75.12
49451;BME280;35336;48.400;10.886;2022-07-31T00:16:29;96532.38;;;17.40;75.42
49451;BME280;35336;48.400;10.886;2022-07-31T00:16:44;96516.66;;;17.37;75.68
49451;BME280;35336;48.400;10.886;2022-07-31T00:16:59;96473.69;;;17.07;75.60
49451;BME280;35336;48.400;10.886;2022-07-31T00:17:15;96525.94;;;17.41;75.84
49451;BME280;35336;48.400;10.886;2022-07-31T00:17:30;96506.84;;;17.31;75.93
49451;BME280;35336;48.400;10.886;2022-07-31T00:17:46;96525.94;;;17.41;76.03
49451;BME280;35336;48.400;10.886;2022-07-31T00:18:02;96523.84;;;17.43;75.86
49451;BME280;35336;48.400;10.886;2022-07-31T00:18:17;96497.25;;;17.23;75.96
49451;BME280;35336;48.400;10.886;2022-07-31T00:18:33;96528.75;;;17.46;75.76
49451;BME280;35336;48.400;10.886;2022-07-31T00:18:49;96472.16;;;17.11;75.75
49451;BME280;35336;48.400;10.886;2022-07-31T00:19:04;96500.88;;;17.29;75.89
49451;BME280;35336;48.400;10.886;2022-07-31T00:19:20;96476.50;;;17.12;75.99
49451;BME280;35336;48.400;10.886;2022-07-31T00:19:35;96530.38;;;17.48;76.03
49451;BME280;35336;48.400;10.886;2022-07-31T00:19:51;96529.34;;;17.49;75.47
49451;BME280;35336;48.400;10.886;2022-07-31T00:20:08;96513.97;;;17.37;75.72
49451;BME280;35336;48.400;10.886;2022-07-31T00:20:24;96467.28;;;17.08;75.94
49451;BME280;35336;48.400;10.886;2022-07-31T00:20:39;96535.44;;;17.44;76.39
49451;BME280;35336;48.400;10.886;2022-07-31T00:20:55;96519.38;;;17.37;76.46
49451;BME280;35336;48.400;10.886;2022-07-31T00:21:10;96499.81;;;17.30;76.44
49451;BME280;35336;48.400;10.886;2022-07-31T00:21:28;96506.38;;;17.34;76.65
49451;BME280;35336;48.400;10.886;2022-07-31T00:21:43;96477.56;;;17.11;76.44
49451;BME280;35336;48.400;10.886;2022-07-31T00:21:58;96525.47;;;17.44;76.53
49451;BME280;35336;48.400;10.886;2022-07-31T00:22:14;96522.66;;;17.39;76.66
49451;BME280;35336;48.400;10.886;2022-07-31T00:22:29;96497.13;;;17.30;76.42
49451;BME280;35336;48.400;10.886;2022-07-31T00:22:46;96517.88;;;17.41;76.40
49451;BME280;35336;48.400;10.886;2022-07-31T00:23:02;96509.31;;;17.33;76.18
49451;BME280;35336;48.400;10.886;2022-07-31T00:23:17;96498.41;;;17.27;76.14
49451;BME280;35336;48.400;10.886;2022-07-31T00:23:33;96503.59;;;17.29;76.18
49451;BME280;35336;48.400;10.886;2022-07-31T00:23:48;96521.00;;;17.38;76.31
49451;BME280;35336;48.400;10.886;2022-07-31T00:24:04;96502.03;;;17.21;76.54
49451;BME280;35336;48.400;10.886;2022-07-31T00:24:19;96480.03;;;17.12;76.05
49451;BME280;35336;48.400;10.886;2022-07-31T00:24:35;96530.03;;;17.44;76.37
49451;BME280;35336;48.400;10.886;2022-07-31T00:24:50;96501.94;;;17.28;76.29
49451;BME280;35336;48.400;10.886;2022-07-31T00:25:06;96506.84;;;17.31;76.37
49451;BME280;35336;48.400;10.886;2022-07-31T00:25:22;96507.88;;;17.30;76.59
49451;BME280;35336;48.400;10.886;2022-07-31T00:25:37;96516.56;;;17.32;76.17
49451;BME280;35336;48.400;10.886;2022-07-31T00:25:53;96515.75;;;17.32;75.90
49451;BME280;35336;48.400;10.886;2022-07-31T00:26:08;96519.03;;;17.34;76.02
49451;BME280;35336;48.400;10.886;2022-07-31T00:26:24;96513.78;;;17.27;75.95
49451;BME280;35336;48.400;10.886;2022-07-31T00:26:39;96519.97;;;17.27;76.28
49451;BME280;35336;48.400;10.886;2022-07-31T00:26:55;96507.69;;;17.20;76.38
49451;BME280;35336;48.400;10.886;2022-07-31T00:27:11;96515.63;;;17.26;76.71
49451;BME280;35336;48.400;10.886;2022-07-31T00:27:26;96515.41;;;17.28;76.61
49451;BME280;35336;48.400;10.886;2022-07-31T00:27:42;96523.84;;;17.32;76.64
49451;BME280;35336;48.400;10.886;2022-07-31T00:27:57;96506.03;;;17.19;76.44
49451;BME280;35336;48.400;10.886;2022-07-31T00:28:13;96499.00;;;17.18;76.59
49451;BME280;35336;48.400;10.886;2022-07-31T00:28:28;96520.91;;;17.33;76.40
49451;BME280;35336;48.400;10.886;2022-07-31T00:28:43;96515.63;;;17.26;76.83
49451;BME280;35336;48.400;10.886;2022-07-31T00:28:59;96499.00;;;17.18;76.65
49451;BME280;35336;48.400;10.886;2022-07-31T00:29:15;96520.81;;;17.28;76.69
49451;BME280;35336;48.400;10.886;2022-07-31T00:29:30;96518.47;;;17.32;76.81
49451;BME280;35336;48.400;10.886;2022-07-31T00:29:46;96525.13;;;17.29;76.84
49451;BME280;35336;48.400;10.886;2022-07-31T00:30:02;96522.44;;;17.29;76.94
49451;BME280;35336;48.400;10.886;2022-07-31T00:30:18;96522.31;;;17.24;76.99
49451;BME280;35336;48.400;10.886;2022-07-31T00:30:33;96508.03;;;17.11;77.20
49451;BME280;35336;48.400;10.886;2022-07-31T00:30:48;96476.84;;;16.92;77.19
49451;BME280;35336;48.400;10.886;2022-07-31T00:31:04;96517.88;;;17.18;77.27
49451;BME280;35336;48.400;10.886;2022-07-31T00:31:19;96514.34;;;17.17;77.26
49451;BME280;35336;48.400;10.886;2022-07-31T00:31:35;96516.34;;;17.22;77.47
49451;BME280;35336;48.400;10.886;2022-07-31T00:31:50;96490.31;;;17.04;77.45
49451;BME280;35336;48.400;10.886;2022-07-31T00:32:06;96515.88;;;17.13;77.43
49451;BME280;35336;48.400;10.886;2022-07-31T00:32:21;96523.94;;;17.25;77.33
49451;BME280;35336;48.400;10.886;2022-07-31T00:32:37;96511.88;;;17.15;77.43
49451;BME280;35336;48.400;10.886;2022-07-31T00:32:52;96522.31;;;17.24;77.63
49451;BME280;35336;48.400;10.886;2022-07-31T00:33:08;96511.31;;;17.13;77.72
49451;BME280;35336;48.400;10.886;2022-07-31T00:33:23;96519.25;;;17.20;77.34
49451;BME280;35336;48.400;10.886;2022-07-31T00:33:38;96466.53;;;16.89;77.44
49451;BME280;35336;48.400;10.886;2022-07-31T00:33:54;96520.22;;;17.26;77.47
49451;BME280;35336;48.400;10.886;2022-07-31T00:34:09;96498.06;;;17.12;77.35
49451;BME280;35336;48.400;10.886;2022-07-31T00:34:25;96487.28;;;17.00;77.37
49451;BME280;35336;48.400;10.886;2022-07-31T00:34:41;96522.44;;;17.29;77.03
49451;BME280;35336;48.400;10.886;2022-07-31T00:34:59;96513.78;;;17.27;77.32
49451;BME280;35336;48.400;10.886;2022-07-31T00:35:15;96501.69;;;17.18;77.01
49451;BME280;35336;48.400;10.886;2022-07-31T00:35:30;96501.09;;;17.15;76.97
49451;BME280;35336;48.400;10.886;2022-07-31T00:35:46;96520.81;;;17.28;77.12
49451;BME280;35336;48.400;10.886;2022-07-31T00:36:01;96519.50;;;17.30;77.15
49451;BME280;35336;48.400;10.886;2022-07-31T00:36:17;96495.38;;;17.12;77.22
49451;BME280;35336;48.400;10.886;2022-07-31T00:36:32;96521.59;;;17.28;76.86
49451;BME280;35336;48.400;10.886;2022-07-31T00:36:48;96506.84;;;17.19;76.86
49451;BME280;35336;48.400;10.886;2022-07-31T00:37:03;96465.03;;;16.93;76.68
49451;BME280;35336;48.400;10.886;2022-07-31T00:37:18;96493.72;;;17.11;77.02
49451;BME280;35336;48.400;10.886;2022-07-31T00:37:35;96499.25;;;17.16;76.79
49451;BME280;35336;48.400;10.886;2022-07-31T00:37:51;96461.75;;;16.91;76.76
49451;BME280;35336;48.400;10.886;2022-07-31T00:38:07;96498.31;;;17.10;76.79
49451;BME280;35336;48.400;10.886;2022-07-31T00:38:25;96520.44;;;17.24;77.04
49451;BME280;35336;48.400;10.886;2022-07-31T00:38:40;96518.81;;;17.23;76.91
49451;BME280;35336;48.400;10.886;2022-07-31T00:38:56;96494.44;;;17.06;77.21
49451;BME280;35336;48.400;10.886;2022-07-31T00:39:11;96492.91;;;17.10;76.89
49451;BME280;35336;48.400;10.886;2022-07-31T00:39:27;96504.84;;;17.14;76.80
49451;BME280;35336;48.400;10.886;2022-07-31T00:39:42;96511.44;;;17.19;76.69
49451;BME280;35336;48.400;10.886;2022-07-31T00:39:58;96510.47;;;17.25;76.60
49451;BME280;35336;48.400;10.886;2022-07-31T00:40:15;96523.50;;;17.28;76.87
49451;BME280;35336;48.400;10.886;2022-07-31T00:40:30;96501.94;;;17.16;76.70
49451;BME280;35336;48.400;10.886;2022-07-31T00:40:47;96522.09;;;17.25;76.58
49451;BME280;35336;48.400;10.886;2022-07-31T00:41:03;96504.84;;;17.14;76.69
49451;BME280;35336;48.400;10.886;2022-07-31T00:41:18;96517.16;;;17.22;76.58
49451;BME280;35336;48.400;10.886;2022-07-31T00:41:42;96523.34;;;17.23;76.79
49451;BME280;35336;48.400;10.886;2022-07-31T00:41:58;96510.13;;;17.09;76.70
49451;BME280;35336;48.400;10.886;2022-07-31T00:42:22;96509.06;;;17.10;76.65
49451;BME280;35336;48.400;10.886;2022-07-31T00:42:38;96527.34;;;17.20;76.59
49451;BME280;35336;48.400;10.886;2022-07-31T00:42:54;96506.84;;;17.07;76.85
49451;BME280;35336;48.400;10.886;2022-07-31T00:43:09;96520.31;;;17.19;77.03
49451;BME280;35336;48.400;10.886;2022-07-31T00:43:25;96525.69;;;17.19;77.08
49451;BME280;35336;48.400;10.886;2022-07-31T00:43:40;96524.66;;;17.20;76.96
49451;BME280;35336;48.400;10.886;2022-07-31T00:43:56;96525.50;;;17.21;76.86
49451;BME280;35336;48.400;10.886;2022-07-31T00:44:12;96521.16;;;17.20;76.89
49451;BME280;35336;48.400;10.886;2022-07-31T00:44:28;96492.66;;;17.00;76.78
49451;BME280;35336;48.400;10.886;2022-07-31T00:44:44;96501.94;;;17.04;76.80
49451;BME280;35336;48.400;10.886;2022-07-31T00:44:59;96530.28;;;17.19;76.74
49451;BME280;35336;48.400;10.886;2022-07-31T00:45:15;96494.66;;;17.05;76.74
49451;BME280;35336;48.400;10.886;2022-07-31T00:45:30;96499.25;;;17.04;76.84
49451;BME280;35336;48.400;10.886;2022-07-31T00:45:48;96525.25;;;17.22;76.73
49451;BME280;35336;48.400;10.886;2022-07-31T00:46:04;96477.31;;;16.89;76.87
49451;BME280;35336;48.400;10.886;2022-07-31T00:46:21;96518.91;;;17.17;76.85
49451;BME280;35336;48.400;10.886;2022-07-31T00:46:36;96499.00;;;17.06;76.58
49451;BME280;35336;48.400;10.886;2022-07-31T00:46:52;96526.06;;;17.23;76.60
49451;BME280;35336;48.400;10.886;2022-07-31T00:47:07;96524.09;;;17.18;76.54
49451;BME280;35336;48.400;10.886;2022-07-31T00:47:23;96526.53;;;17.20;76.76
49451;BME280;35336;48.400;10.886;2022-07-31T00:47:38;96524.66;;;17.20;76.67
49451;BME280;35336;48.400;10.886;2022-07-31T00:47:54;96522.19;;;17.19;76.55
49451;BME280;35336;48.400;10.886;2022-07-31T00:48:09;96485.38;;;16.89;76.59
49451;BME280;35336;48.400;10.886;2022-07-31T00:48:25;96496.53;;;17.04;76.88
49451;BME280;35336;48.400;10.886;2022-07-31T00:48:41;96477.31;;;16.89;76.71
49451;BME280;35336;48.400;10.886;2022-07-31T00:48:56;96517.75;;;17.12;76.61
49451;BME280;35336;48.400;10.886;2022-07-31T00:49:12;96529.22;;;17.20;76.69
49451;BME280;35336;48.400;10.886;2022-07-31T00:49:27;96455.03;;;16.70;76.69
49451;BME280;35336;48.400;10.886;2022-07-31T00:49:44;96524.53;;;17.15;76.80
49451;BME280;35336;48.400;10.886;2022-07-31T00:49:59;96521.25;;;17.13;77.01
49451;BME280;35336;48.400;10.886;2022-07-31T00:50:15;96524.91;;;17.19;77.11
49451;BME280;35336;48.400;10.886;2022-07-31T00:50:30;96481.88;;;16.88;77.18
49451;BME280;35336;48.400;10.886;2022-07-31T00:50:46;96451.75;;;16.67;77.11
49451;BME280;35336;48.400;10.886;2022-07-31T00:51:01;96520.91;;;17.09;77.34
49451;BME280;35336;48.400;10.886;2022-07-31T00:51:16;96522.78;;;17.09;77.36
49451;BME280;35336;48.400;10.886;2022-07-31T00:51:32;96522.88;;;17.02;77.56
49451;BME280;35336;48.400;10.886;2022-07-31T00:51:47;96516.78;;;16.95;77.39
49451;BME280;35336;48.400;10.886;2022-07-31T00:52:04;96516.69;;;17.02;77.34
49451;BME280;35336;48.400;10.886;2022-07-31T00:52:20;96501.09;;;16.92;77.40
49451;BME280;35336;48.400;10.886;2022-07-31T00:52:35;96521.84;;;17.03;77.33
49451;BME280;35336;48.400;10.886;2022-07-31T00:52:51;96518.53;;;17.01;77.74
49451;BME280;35336;48.400;10.886;2022-07-31T00:53:06;96503.19;;;16.90;77.41
49451;BME280;35336;48.400;10.886;2022-07-31T00:53:22;96505.03;;;16.89;77.36
49451;BME280;35336;48.400;10.886;2022-07-31T00:53:37;96522.88;;;17.02;77.26
49451;BME280;35336;48.400;10.886;2022-07-31T00:53:53;96510.94;;;16.98;77.25
49451;BME280;35336;48.400;10.886;2022-07-31T00:54:09;96519.16;;;17.03;77.45
49451;BME280;35336;48.400;10.886;2022-07-31T00:54:24;96517.50;;;17.02;77.50
49451;BME280;35336;48.400;10.886;2022-07-31T00:54:40;96512.31;;;16.89;77.30
49451;BME280;35336;48.400;10.886;2022-07-31T00:54:55;96516.34;;;16.98;77.28
49451;BME280;35336;48.400;10.886;2022-07-31T00:55:11;96507.53;;;16.91;77.43
49451;BME280;35336;48.400;10.886;2022-07-31T00:55:26;96523.38;;;16.99;77.50
49451;BME280;35336;48.400;10.886;2022-07-31T00:55:41;96522.78;;;16.97;77.52
49451;BME280;35336;48.400;10.886;2022-07-31T00:55:57;96492.16;;;16.79;77.74
49451;BME280;35336;48.400;10.886;2022-07-31T00:56:12;96520.53;;;16.94;77.60
49451;BME280;35336;48.400;10.886;2022-07-31T00:56:28;96518.09;;;16.92;77.61
49451;BME280;35336;48.400;10.886;2022-07-31T00:56:43;96509.16;;;16.80;77.71
49451;BME280;35336;48.400;10.886;2022-07-31T00:56:59;96495.78;;;16.73;77.51
49451;BME280;35336;48.400;10.886;2022-07-31T00:57:14;96507.94;;;16.76;77.66
49451;BME280;35336;48.400;10.886;2022-07-31T00:57:29;96523.78;;;16.84;77.97
49451;BME280;35336;48.400;10.886;2022-07-31T00:57:45;96463.44;;;16.49;77.75
49451;BME280;35336;48.400;10.886;2022-07-31T00:58:01;96521.44;;;16.88;77.99
49451;BME280;35336;48.400;10.886;2022-07-31T00:58:16;96500.91;;;16.75;77.97
49451;BME280;35336;48.400;10.886;2022-07-31T00:58:32;96516.88;;;16.88;78.16
49451;BME280;35336;48.400;10.886;2022-07-31T00:58:47;96498.38;;;16.80;78.09
49451;BME280;35336;48.400;10.886;2022-07-31T00:59:03;96514.75;;;16.90;78.22
49451;BME280;35336;48.400;10.886;2022-07-31T00:59:19;96512.19;;;16.83;78.15
49451;BME280;35336;48.400;10.886;2022-07-31T00:59:34;96519.59;;;16.88;78.24
49451;BME280;35336;48.400;10.886;2022-07-31T00:59:50;96498.47;;;16.73;78.12
49451;BME280;35336;48.400;10.886;2022-07-31T01:00:06;96499.06;;;16.75;77.85
49451;BME280;35336;48.400;10.886;2022-07-31T01:00:22;96523.88;;;16.89;78.05
49451;BME280;35336;48.400;10.886;2022-07-31T01:00:37;96521.19;;;16.89;78.21
49451;BME280;35336;48.400;10.886;2022-07-31T01:00:53;96495.31;;;16.76;78.14
49451;BME280;35336;48.400;10.886;2022-07-31T01:01:08;96523.88;;;16.89;77.92
49451;BME280;35336;48.400;10.886;2022-07-31T01:01:23;96515.25;;;16.87;78.04
49451;BME280;35336;48.400;10.886;2022-07-31T01:01:39;96463.56;;;16.55;77.91
49451;BME280;35336;48.400;10.886;2022-07-31T01:01:55;96491.00;;;16.75;77.93
49451;BME280;35336;48.400;10.886;2022-07-31T01:02:11;96521.59;;;16.93;77.79
49451;BME280;35336;48.400;10.886;2022-07-31T01:02:27;96494.84;;;16.79;77.79
49451;BME280;35336;48.400;10.886;2022-07-31T01:02:43;96468.28;;;16.59;77.76
49451;BME280;35336;48.400;10.886;2022-07-31T01:02:59;96519.34;;;16.90;77.59
49451;BME280;35336;48.400;10.886;2022-07-31T01:03:14;96516.78;;;16.95;77.62
49451;BME280;35336;48.400;10.886;2022-07-31T01:03:30;96510.31;;;16.84;77.68
49451;BME280;35336;48.400;10.886;2022-07-31T01:03:45;96523.00;;;16.95;77.82
49451;BME280;35336;48.400;10.886;2022-07-31T01:04:01;96519.72;;;16.93;77.75
49451;BME280;35336;48.400;10.886;2022-07-31T01:04:16;96509.50;;;16.83;78.04
49451;BME280;35336;48.400;10.886;2022-07-31T01:04:33;96523.00;;;16.95;78.13
49451;BME280;35336;48.400;10.886;2022-07-31T01:04:48;96523.22;;;16.94;78.11
49451;BME280;35336;48.400;10.886;2022-07-31T01:05:04;96499.19;;;16.80;77.95
49451;BME280;35336;48.400;10.886;2022-07-31T01:05:19;96500.22;;;16.79;78.07
49451;BME280;35336;48.400;10.886;2022-07-31T01:05:35;96523.47;;;16.92;78.00
49451;BME280;35336;48.400;10.886;2022-07-31T01:05:50;96516.66;;;16.90;78.25
49451;BME280;35336;48.400;10.886;2022-07-31T01:06:06;96511.00;;;16.79;77.93
49451;BME280;35336;48.400;10.886;2022-07-31T01:06:21;96499.88;;;16.76;78.28
49451;BME280;35336;48.400;10.886;2022-07-31T01:06:37;96501.06;;;16.80;78.12
49451;BME280;35336;48.400;10.886;2022-07-31T01:06:52;96512.56;;;16.87;78.16
49451;BME280;35336;48.400;10.886;2022-07-31T01:07:08;96493.31;;;16.72;77.90
49451;BME280;35336;48.400;10.886;2022-07-31T01:07:23;96496.97;;;16.77;78.04
49451;BME280;35336;48.400;10.886;2022-07-31T01:07:40;96516.03;;;16.88;78.47
49451;BME280;35336;48.400;10.886;2022-07-31T01:07:55;96495.06;;;16.66;78.47
49451;BME280;35336;48.400;10.886;2022-07-31T01:08:10;96501.03;;;16.68;78.31
49451;BME280;35336;48.400;10.886;2022-07-31T01:08:26;96520.84;;;16.86;78.55
49451;BME280;35336;48.400;10.886;2022-07-31T01:08:41;96495.06;;;16.66;78.59
49451;BME280;35336;48.400;10.886;2022-07-31T01:08:57;96524.63;;;16.85;78.62
49451;BME280;35336;48.400;10.886;2022-07-31T01:09:13;96527.88;;;16.87;78.60
49451;BME280;35336;48.400;10.886;2022-07-31T01:09:31;96515.25;;;16.87;78.50
49451;BME280;35336;48.400;10.886;2022-07-31T01:09:48;96524.38;;;16.86;78.21
49451;BME280;35336;48.400;10.886;2022-07-31T01:10:07;96494.72;;;16.74;78.49
49451;BME280;35336;48.400;10.886;2022-07-31T01:10:43;96482.31;;;16.73;78.18
49451;BME280;35336;48.400;10.886;2022-07-31T01:11:40;96514.41;;;16.87;78.02
49451;BME280;35336;48.400;10.886;2022-07-31T01:12:06;96508.78;;;16.76;77.98
49451;BME280;35336;48.400;10.886;2022-07-31T01:12:47;96501.16;;;16.73;77.79
49451;BME280;35336;48.400;10.886;2022-07-31T01:13:12;96485.34;;;16.65;78.29
49451;BME280;35336;48.400;10.886;2022-07-31T01:13:33;96515.69;;;16.84;78.08
49451;BME280;35336;48.400;10.886;2022-07-31T01:13:58;96509.34;;;16.78;78.50
49451;BME280;35336;48.400;10.886;2022-07-31T01:14:15;96515.94;;;16.82;78.12
49451;BME280;35336;48.400;10.886;2022-07-31T01:14:35;96485.94;;;16.67;78.21
49451;BME280;35336;48.400;10.886;2022-07-31T01:14:56;96489.69;;;16.66;78.32
49451;BME280;35336;48.400;10.886;2022-07-31T01:15:12;96514.97;;;16.77;78.33
49451;BME280;35336;48.400;10.886;2022-07-31T01:15:30;96512.16;;;16.72;78.29
49451;BME280;35336;48.400;10.886;2022-07-31T01:15:46;96514.63;;;16.73;78.48
49451;BME280;35336;48.400;10.886;2022-07-31T01:16:03;96510.88;;;16.74;78.83
49451;BME280;35336;48.400;10.886;2022-07-31T01:16:19;96513.56;;;16.74;78.66
49451;BME280;35336;48.400;10.886;2022-07-31T01:16:40;96495.75;;;16.61;78.78
49451;BME280;35336;48.400;10.886;2022-07-31T01:16:58;96491.66;;;16.59;78.53
49451;BME280;35336;48.400;10.886;2022-07-31T01:17:16;96514.25;;;16.70;78.88
49451;BME280;35336;48.400;10.886;2022-07-31T01:17:34;96514.03;;;16.71;78.42
49451;BME280;35336;48.400;10.886;2022-07-31T01:17:51;96513.81;;;16.73;78.56
49451;BME280;35336;48.400;10.886;2022-07-31T01:18:07;96486.28;;;16.59;78.46
49451;BME280;35336;48.400;10.886;2022-07-31T01:18:26;96504.78;;;16.67;78.64
49451;BME280;35336;48.400;10.886;2022-07-31T01:18:43;96509.25;;;16.73;78.74
49451;BME280;35336;48.400;10.886;2022-07-31T01:19:04;96503.97;;;16.66;78.77
49451;BME280;35336;48.400;10.886;2022-07-31T01:19:39;96515.09;;;16.70;79.09
49451;BME280;35336;48.400;10.886;2022-07-31T01:19:56;96510.16;;;16.67;79.14
49451;BME280;35336;48.400;10.886;2022-07-31T01:20:12;96499.72;;;16.59;79.32
49451;BME280;35336;48.400;10.886;2022-07-31T01:20:28;96512.63;;;16.68;79.42
49451;BME280;35336;48.400;10.886;2022-07-31T01:20:47;96500.69;;;16.64;79.27
49451;BME280;35336;48.400;10.886;2022-07-31T01:21:06;96461.31;;;16.40;79.46
49451;BME280;35336;48.400;10.886;2022-07-31T01:21:34;96506.44;;;16.68;79.22
49451;BME280;35336;48.400;10.886;2022-07-31T01:23:17;96512.88;;;16.79;78.95
49451;BME280;35336;48.400;10.886;2022-07-31T01:25:11;96504.91;;;16.72;78.53
49451;BME280;35336;48.400;10.886;2022-07-31T01:26:07;96518.72;;;16.76;78.81
49451;BME280;35336;48.400;10.886;2022-07-31T01:26:56;96511.69;;;16.75;78.95
49451;BME280;35336;48.400;10.886;2022-07-31T01:27:26;96489.22;;;16.57;79.01
49451;BME280;35336;48.400;10.886;2022-07-31T01:28:06;96513.81;;;16.73;79.33
49451;BME280;35336;48.400;10.886;2022-07-31T01:29:26;96500.66;;;16.52;79.46
49451;BME280;35336;48.400;10.886;2022-07-31T01:29:44;96502.53;;;16.52;79.73
49451;BME280;35336;48.400;10.886;2022-07-31T01:30:03;96515.28;;;16.57;79.89
49451;BME280;35336;48.400;10.886;2022-07-31T01:30:25;96453.41;;;16.14;79.68
49451;BME280;35336;48.400;10.886;2022-07-31T01:30:53;96498.53;;;16.43;79.62
49451;BME280;35336;48.400;10.886;2022-07-31T01:31:19;96496.66;;;16.43;79.70
49451;BME280;35336;48.400;10.886;2022-07-31T01:31:44;96481.88;;;16.34;79.84
49451;BME280;35336;48.400;10.886;2022-07-31T01:32:09;96519.84;;;16.56;79.76
49451;BME280;35336;48.400;10.886;2022-07-31T01:32:36;96485.47;;;16.28;79.75